createdAt,value
2018-01-11T00:01:27.674Z,9.93
2018-01-11T00:03:55.301Z,12.00
2018-01-11T00:06:22.953Z,10.70
2018-01-11T00:08:50.617Z,10.63
2018-01-11T00:11:18.323Z,10.03
2018-01-11T00:13:45.977Z,11.10
2018-01-11T00:16:13.878Z,11.10
2018-01-11T00:18:41.838Z,10.40
2018-01-11T00:21:09.650Z,11.17
2018-01-11T00:23:37.293Z,11.03
2018-01-11T00:26:04.933Z,10.80
2018-01-11T00:28:32.520Z,9.80
2018-01-11T00:31:00.116Z,10.20
2018-01-11T00:33:27.706Z,10.90
2018-01-11T00:35:55.314Z,9.90
2018-01-11T00:38:23.197Z,10.83
2018-01-11T00:40:50.808Z,8.90
2018-01-11T00:43:18.605Z,10.17
2018-01-11T00:45:46.493Z,9.27
2018-01-11T00:48:14.082Z,9.77
2018-01-11T00:50:41.702Z,9.60
2018-01-11T00:53:09.355Z,9.70
2018-01-11T00:55:37.284Z,11.50
2018-01-11T00:58:04.887Z,10.13
2018-01-11T01:00:32.742Z,11.47
2018-01-11T01:03:00.316Z,10.87
2018-01-11T01:05:27.961Z,10.57
2018-01-11T01:07:55.523Z,11.40
2018-01-11T01:10:23.341Z,12.93
2018-01-11T01:12:51.024Z,11.80
2018-01-11T01:15:18.623Z,11.20
2018-01-11T01:17:46.238Z,10.20
2018-01-11T01:20:13.802Z,11.13
2018-01-11T01:22:41.662Z,11.37
2018-01-11T01:25:09.229Z,10.67
2018-01-11T01:27:36.846Z,10.90
2018-01-11T01:30:04.507Z,12.20
2018-01-11T01:32:32.175Z,11.77
2018-01-11T01:35:00.100Z,11.30
2018-01-11T01:37:27.686Z,10.60
2018-01-11T01:39:55.313Z,11.17
2018-01-11T01:42:22.907Z,11.13
2018-01-11T01:44:50.495Z,12.77
2018-01-11T01:47:18.302Z,11.40
2018-01-11T01:49:46.269Z,11.50
2018-01-11T01:52:13.896Z,12.27
2018-01-11T01:54:41.510Z,10.93
2018-01-11T01:57:09.458Z,11.67
2018-01-11T01:59:37.050Z,11.60
2018-01-11T02:02:04.697Z,11.20
2018-01-11T02:04:32.319Z,11.47
2018-01-11T02:06:59.989Z,10.50
2018-01-11T02:09:27.823Z,11.20
2018-01-11T02:11:55.426Z,10.43
2018-01-11T02:14:23.038Z,11.10
2018-01-11T02:16:50.642Z,12.43
2018-01-11T02:19:18.267Z,12.63
2018-01-11T02:21:45.859Z,11.03
2018-01-11T02:24:13.520Z,11.27
2018-01-11T02:26:41.407Z,11.10
2018-01-11T02:29:09.060Z,10.67
2018-01-11T02:31:36.610Z,9.90
2018-01-11T02:34:04.496Z,11.90
2018-01-11T02:36:32.200Z,11.33
2018-01-11T02:38:59.757Z,11.00
2018-01-11T02:41:27.688Z,12.10
2018-01-11T02:43:55.305Z,10.63
2018-01-11T02:46:22.870Z,12.37
2018-01-11T02:48:50.509Z,12.83
2018-01-11T02:51:18.075Z,11.90
2018-01-11T02:53:45.665Z,10.27
2018-01-11T02:56:13.337Z,10.63
2018-01-11T02:58:41.329Z,10.73
2018-01-11T03:01:08.914Z,11.77
2018-01-11T03:03:36.514Z,11.00
2018-01-11T03:06:04.198Z,11.30
2018-01-11T03:08:31.754Z,10.90
2018-01-11T03:10:59.407Z,10.80
2018-01-11T03:13:27.089Z,11.17
2018-01-11T03:15:54.649Z,12.60
2018-01-11T03:18:22.268Z,12.57
2018-01-11T03:20:49.860Z,11.20
2018-01-11T03:23:17.737Z,11.53
2018-01-11T03:25:45.642Z,11.23
2018-01-11T03:28:13.272Z,12.00
2018-01-11T03:30:40.833Z,12.57
2018-01-11T03:33:08.435Z,11.40
2018-01-11T03:35:36.473Z,12.60
2018-01-11T03:38:04.271Z,11.60
2018-01-11T03:40:31.830Z,12.67
2018-01-11T03:42:59.451Z,11.63
2018-01-11T03:45:27.325Z,12.43
2018-01-11T03:47:54.922Z,11.93
2018-01-11T03:50:22.476Z,12.40
2018-01-11T03:52:50.117Z,12.90
2018-01-11T03:55:17.711Z,12.60
2018-01-11T03:57:45.842Z,12.87
2018-01-11T04:00:13.436Z,12.30
2018-01-11T04:02:41.082Z,11.97
2018-01-11T04:05:08.697Z,14.10
2018-01-11T04:07:36.270Z,12.87
2018-01-11T04:10:03.883Z,13.40
2018-01-11T04:12:31.517Z,13.30
2018-01-11T04:14:59.428Z,12.10
2018-01-11T04:17:27.341Z,12.73
2018-01-11T04:19:54.895Z,11.90
2018-01-11T04:22:22.482Z,11.10
2018-01-11T04:24:50.426Z,12.67
2018-01-11T04:27:18.221Z,12.60
2018-01-11T04:29:46.168Z,11.40
2018-01-11T04:32:13.825Z,12.53
2018-01-11T04:34:41.399Z,12.97
2018-01-11T04:37:09.246Z,13.13
2018-01-11T04:39:36.857Z,11.63
2018-01-11T04:42:04.427Z,11.87
2018-01-11T04:44:32.005Z,12.33
2018-01-11T04:46:59.651Z,12.10
2018-01-11T04:49:27.241Z,12.67
2018-01-11T04:51:54.944Z,11.23
2018-01-11T04:54:22.887Z,11.90
2018-01-11T04:56:50.483Z,11.20
2018-01-11T04:59:18.227Z,12.60
2018-01-11T05:01:46.110Z,12.20
2018-01-11T05:04:13.701Z,12.57
2018-01-11T05:06:41.365Z,12.43
2018-01-11T05:09:08.916Z,11.90
2018-01-11T05:11:36.524Z,11.63
2018-01-11T05:14:04.108Z,13.77
2018-01-11T05:16:31.697Z,12.90
2018-01-11T05:18:59.363Z,11.63
2018-01-11T05:21:26.916Z,13.73
2018-01-11T05:23:54.474Z,11.23
2018-01-11T05:26:22.057Z,12.40
2018-01-11T05:28:49.954Z,13.53
2018-01-11T05:31:17.518Z,12.93
2018-01-11T05:33:45.259Z,11.80
2018-01-11T05:36:12.916Z,12.90
2018-01-11T05:38:40.472Z,13.03
2018-01-11T05:41:08.143Z,12.23
2018-01-11T05:43:35.978Z,11.53
2018-01-11T05:46:04.654Z,13.50
2018-01-11T05:48:32.252Z,13.20
2018-01-11T05:50:59.866Z,13.20
2018-01-11T05:53:27.502Z,15.70
2018-01-11T05:55:55.157Z,13.40
2018-01-11T05:58:22.784Z,12.60
2018-01-11T06:00:50.690Z,12.13
2018-01-11T06:03:18.513Z,12.60
2018-01-11T06:05:46.071Z,13.40
2018-01-11T06:08:13.724Z,12.67
2018-01-11T06:10:41.358Z,12.70
2018-01-11T06:13:09.046Z,13.70
2018-01-11T06:15:36.913Z,14.20
2018-01-11T06:18:04.583Z,12.90
2018-01-11T06:20:32.793Z,14.67
2018-01-11T06:23:00.513Z,12.83
2018-01-11T06:25:28.252Z,13.47
2018-01-11T06:27:55.972Z,13.33
2018-01-11T06:30:23.558Z,14.00
2018-01-11T06:32:51.202Z,13.00
2018-01-11T06:35:18.802Z,14.43
2018-01-11T06:37:46.605Z,14.37
2018-01-11T06:40:14.452Z,14.13
2018-01-11T06:42:42.037Z,15.97
2018-01-11T06:45:09.653Z,14.63
2018-01-11T06:47:37.330Z,14.77
2018-01-11T06:50:04.928Z,14.40
2018-01-11T06:52:32.721Z,14.40
2018-01-11T06:55:00.371Z,14.20
2018-01-11T06:57:28.044Z,14.70
2018-01-11T06:59:55.627Z,14.30
2018-01-11T07:02:23.258Z,12.90
2018-01-11T07:04:51.145Z,20.10
2018-01-11T07:07:18.762Z,20.13
2018-01-11T07:09:46.320Z,18.87
2018-01-11T07:12:14.262Z,16.90
2018-01-11T07:14:41.969Z,15.00
2018-01-11T07:17:09.586Z,14.57
2018-01-11T07:19:37.423Z,15.20
2018-01-11T07:22:05.008Z,16.77
2018-01-11T07:24:32.664Z,15.77
2018-01-11T07:27:00.299Z,16.07
2018-01-11T07:29:28.036Z,14.90
2018-01-11T07:31:55.623Z,16.40
2018-01-11T07:34:23.190Z,15.47
2018-01-11T07:36:50.810Z,17.20
2018-01-11T07:39:18.369Z,16.07
2018-01-11T07:41:45.992Z,14.33
2018-01-11T07:44:13.799Z,15.63
2018-01-11T07:46:41.804Z,14.17
2018-01-11T07:49:09.363Z,14.43
2018-01-11T07:51:36.942Z,13.90
2018-01-11T07:54:04.558Z,14.80
2018-01-11T07:56:32.458Z,15.03
2018-01-11T07:59:00.088Z,15.00
2018-01-11T08:01:27.985Z,15.07
2018-01-11T08:03:55.700Z,15.13
2018-01-11T08:06:23.333Z,16.10
2018-01-11T08:08:50.922Z,16.80
2018-01-11T08:11:18.828Z,16.47
2018-01-11T08:13:46.502Z,16.33
2018-01-11T08:16:14.153Z,16.03
2018-01-11T08:18:41.861Z,16.43
2018-01-11T08:21:09.653Z,15.43
2018-01-11T08:23:37.249Z,16.83
2018-01-11T08:26:04.805Z,16.90
2018-01-11T08:28:32.542Z,16.40
2018-01-11T08:31:00.180Z,15.17
2018-01-11T08:33:27.843Z,14.13
2018-01-11T08:35:55.481Z,15.20
2018-01-11T08:38:23.132Z,14.93
2018-01-11T08:40:50.797Z,16.50
2018-01-11T08:43:18.767Z,15.17
2018-01-11T08:45:46.360Z,13.53
2018-01-11T08:48:13.956Z,14.30
2018-01-11T08:50:41.577Z,16.10
2018-01-11T08:53:09.183Z,15.30
2018-01-11T08:55:36.877Z,15.60
2018-01-11T08:58:04.671Z,13.93
2018-01-11T09:00:32.220Z,15.30
2018-01-11T09:02:59.800Z,15.50
2018-01-11T09:05:27.466Z,16.73
2018-01-11T09:07:55.095Z,15.63
2018-01-11T09:10:22.683Z,17.80
2018-01-11T09:12:50.539Z,15.33
2018-01-11T09:15:18.101Z,17.47
2018-01-11T09:17:45.750Z,19.17
2018-01-11T09:20:13.310Z,19.10
2018-01-11T09:22:41.259Z,17.73
2018-01-11T09:25:08.921Z,18.80
2018-01-11T09:27:36.524Z,18.10
2018-01-11T09:30:04.090Z,26.20
2018-01-11T09:32:32.024Z,29.43
2018-01-11T09:34:59.629Z,26.73
2018-01-11T09:37:27.253Z,23.67
2018-01-11T09:39:54.865Z,34.37
2018-01-11T09:42:22.758Z,35.90
2018-01-11T09:44:50.389Z,35.77
2018-01-11T09:47:17.953Z,27.07
2018-01-11T09:49:45.578Z,20.50
2018-01-11T09:52:13.411Z,18.20
2018-01-11T09:54:41.378Z,17.90
2018-01-11T09:57:09.421Z,17.07
2018-01-11T09:59:37.084Z,17.43
2018-01-11T10:02:04.921Z,16.93
2018-01-11T10:04:32.553Z,18.27
2018-01-11T10:07:00.198Z,17.57
2018-01-11T10:09:28.058Z,18.47
2018-01-11T10:11:55.935Z,17.33
2018-01-11T10:14:23.535Z,15.97
2018-01-11T10:16:51.146Z,16.40
2018-01-11T10:19:18.709Z,17.30
2018-01-11T10:21:46.367Z,14.77
2018-01-11T10:24:15.200Z,17.23
2018-01-11T10:26:42.913Z,17.60
2018-01-11T10:29:10.805Z,17.30
2018-01-11T10:31:38.388Z,18.03
2018-01-11T10:34:06.015Z,16.60
2018-01-11T10:36:33.756Z,18.20
2018-01-11T10:39:01.319Z,16.67
2018-01-11T10:41:29.150Z,16.43
2018-01-11T10:43:56.744Z,17.30
2018-01-11T10:46:24.392Z,17.93
2018-01-11T10:48:51.995Z,16.67
2018-01-11T10:51:19.794Z,18.30
2018-01-11T10:53:47.744Z,17.77
2018-01-11T10:56:15.605Z,19.80
2018-01-11T10:58:43.311Z,17.67
2018-01-11T11:01:16.577Z,17.70
2018-01-11T11:03:44.203Z,16.80
2018-01-11T11:06:12.012Z,16.60
2018-01-11T11:08:39.643Z,18.20
2018-01-11T11:11:07.230Z,19.13
2018-01-11T11:13:34.825Z,19.80
2018-01-11T11:16:02.437Z,20.83
2018-01-11T11:18:30.050Z,19.70
2018-01-11T11:20:57.675Z,20.87
2018-01-11T11:23:25.261Z,20.10
2018-01-11T11:25:52.920Z,21.23
2018-01-11T11:28:21.534Z,20.73
2018-01-11T11:30:49.558Z,20.23
2018-01-11T11:33:18.901Z,22.20
2018-01-11T11:35:46.757Z,21.57
2018-01-11T11:38:14.612Z,22.40
2018-01-11T11:40:42.206Z,24.23
2018-01-11T11:43:09.769Z,21.30
2018-01-11T11:45:37.408Z,23.63
2018-01-11T11:48:05.229Z,23.17
2018-01-11T11:50:33.078Z,22.70
2018-01-11T11:53:00.677Z,23.30
2018-01-11T11:55:28.270Z,23.47
2018-01-11T11:57:56.273Z,23.10
2018-01-11T12:00:23.923Z,22.43
2018-01-11T12:02:51.915Z,23.73
2018-01-11T12:05:19.885Z,22.60
2018-01-11T12:07:47.478Z,25.23
2018-01-11T12:10:15.088Z,23.10
2018-01-11T12:12:42.696Z,24.70
2018-01-11T12:15:10.396Z,25.77
2018-01-11T12:17:37.983Z,23.27
2018-01-11T12:20:05.857Z,23.47
2018-01-11T12:22:33.451Z,23.47
2018-01-11T12:25:01.074Z,21.70
2018-01-11T12:27:28.701Z,22.50
2018-01-11T12:29:56.598Z,21.73
2018-01-11T12:32:24.172Z,24.07
2018-01-11T12:34:51.853Z,22.50
2018-01-11T12:37:19.449Z,22.60
2018-01-11T12:39:47.166Z,23.47
2018-01-11T12:42:14.764Z,23.10
2018-01-11T12:44:42.673Z,23.40
2018-01-11T12:47:10.288Z,22.03
2018-01-11T12:49:37.847Z,23.00
2018-01-11T12:52:05.447Z,22.93
2018-01-11T12:54:33.335Z,19.13
2018-01-11T12:57:00.932Z,23.17
2018-01-11T12:59:28.566Z,22.83
2018-01-11T13:01:56.138Z,20.37
2018-01-11T13:04:23.734Z,22.80
2018-01-11T13:06:51.403Z,22.67
2018-01-11T13:09:19.091Z,22.80
2018-01-11T13:11:46.726Z,21.60
2018-01-11T13:14:14.285Z,21.97
2018-01-11T13:16:41.932Z,20.70
2018-01-11T13:19:09.850Z,19.27
2018-01-11T13:21:37.413Z,21.60
2018-01-11T13:24:05.022Z,22.83
2018-01-11T13:26:32.590Z,20.20
2018-01-11T13:29:00.497Z,20.57
2018-01-11T13:31:28.054Z,21.33
2018-01-11T13:33:55.645Z,20.70
2018-01-11T13:36:23.599Z,20.07
2018-01-11T13:38:51.439Z,21.60
2018-01-11T13:41:19.059Z,22.70
2018-01-11T13:43:46.800Z,21.50
2018-01-11T13:46:14.463Z,21.10
2018-01-11T13:48:42.095Z,21.90
2018-01-11T13:51:09.757Z,21.50
2018-01-11T13:53:37.388Z,22.50
2018-01-11T13:56:04.997Z,22.87
2018-01-11T13:58:32.582Z,26.43
2018-01-11T14:01:00.198Z,35.60
2018-01-11T14:03:27.823Z,23.37
2018-01-11T14:05:55.451Z,23.20
2018-01-11T14:08:23.298Z,21.00
2018-01-11T14:10:50.924Z,21.33
2018-01-11T14:13:18.534Z,22.43
2018-01-11T14:15:46.114Z,24.10
2018-01-11T14:18:13.702Z,23.23
2018-01-11T14:20:41.331Z,23.20
2018-01-11T14:23:09.032Z,23.83
2018-01-11T14:25:36.681Z,22.33
2018-01-11T14:28:04.489Z,22.27
2018-01-11T14:30:32.112Z,21.73
2018-01-11T14:32:59.972Z,23.07
2018-01-11T14:35:28.000Z,23.40
2018-01-11T14:37:55.860Z,24.07
2018-01-11T14:40:23.722Z,23.60
2018-01-11T14:42:51.430Z,22.03
2018-01-11T14:45:19.060Z,21.97
2018-01-11T14:47:46.660Z,22.70
2018-01-11T14:50:14.362Z,21.43
2018-01-11T14:52:41.968Z,24.67
2018-01-11T14:55:09.554Z,23.70
2018-01-11T14:57:37.241Z,23.00
2018-01-11T15:00:04.942Z,21.60
2018-01-11T15:02:32.574Z,23.43
2018-01-11T15:05:00.225Z,22.40
2018-01-11T15:07:27.903Z,24.50
2018-01-11T15:09:55.536Z,23.73
2018-01-11T15:12:23.256Z,22.77
2018-01-11T15:14:50.875Z,23.60
2018-01-11T15:17:18.521Z,23.03
2018-01-11T15:19:46.077Z,25.57
2018-01-11T15:22:13.649Z,23.40
2018-01-11T15:24:41.319Z,23.67
2018-01-11T15:27:08.936Z,21.77
2018-01-11T15:29:36.533Z,21.50
2018-01-11T15:32:04.099Z,22.73
2018-01-11T15:34:31.789Z,22.17
2018-01-11T15:36:59.589Z,21.70
2018-01-11T15:39:27.521Z,22.37
2018-01-11T15:41:55.218Z,23.93
2018-01-11T15:44:23.772Z,23.37
2018-01-11T15:46:51.437Z,23.40
2018-01-11T15:49:19.064Z,23.73
2018-01-11T15:51:47.063Z,23.03
2018-01-11T15:54:14.631Z,23.80
2018-01-11T15:56:42.509Z,23.87
2018-01-11T15:59:10.140Z,23.33
2018-01-11T16:01:37.771Z,23.10
2018-01-11T16:04:05.412Z,22.10
2018-01-11T16:06:33.047Z,21.70
2018-01-11T16:09:00.824Z,23.40
2018-01-11T16:11:28.690Z,23.87
2018-01-11T16:13:56.348Z,24.20
2018-01-11T16:16:23.963Z,22.30
2018-01-11T16:18:51.664Z,21.60
2018-01-11T16:21:19.230Z,22.70
2018-01-11T16:23:46.824Z,22.73
2018-01-11T16:26:14.434Z,22.50
2018-01-11T16:28:42.072Z,23.50
2018-01-11T16:31:09.718Z,27.90
2018-01-11T16:33:37.641Z,26.13
2018-01-11T16:36:05.254Z,25.80
2018-01-11T16:38:32.838Z,23.23
2018-01-11T16:41:00.467Z,27.67
2018-01-11T16:43:28.026Z,27.63
2018-01-11T16:45:55.946Z,25.20
2018-01-11T16:48:23.542Z,25.87
2018-01-11T16:50:51.134Z,23.90
2018-01-11T16:53:18.744Z,24.87
2018-01-11T16:55:46.296Z,26.80
2018-01-11T16:58:13.999Z,27.97
2018-01-11T17:00:41.766Z,29.73
2018-01-11T17:03:09.395Z,27.17
2018-01-11T17:05:36.975Z,26.83
2018-01-11T17:08:04.646Z,29.30
2018-01-11T17:10:32.237Z,29.43
2018-01-11T17:12:59.802Z,26.90
2018-01-11T17:15:27.681Z,25.93
2018-01-11T17:17:55.303Z,23.20
2018-01-11T17:20:22.870Z,23.80
2018-01-11T17:22:50.485Z,24.10
2018-01-11T17:25:18.302Z,22.00
2018-01-11T17:27:45.932Z,22.43
2018-01-11T17:30:13.580Z,26.00
2018-01-11T17:32:41.237Z,24.93
2018-01-11T17:35:08.787Z,25.40
2018-01-11T17:37:36.574Z,22.50
2018-01-11T17:40:04.174Z,24.23
2018-01-11T17:42:31.767Z,23.53
2018-01-11T17:44:59.328Z,24.57
2018-01-11T17:47:27.291Z,24.00
2018-01-11T17:49:55.096Z,22.10
2018-01-11T17:52:23.032Z,24.73
2018-01-11T17:54:50.604Z,23.63
2018-01-11T17:57:18.193Z,23.00
2018-01-11T17:59:45.842Z,24.40
2018-01-11T18:02:13.435Z,21.87
2018-01-11T18:04:46.596Z,25.10
2018-01-11T18:07:14.255Z,26.03
2018-01-11T18:09:41.834Z,26.43
2018-01-11T18:12:18.182Z,25.80
2018-01-11T18:14:45.777Z,27.27
2018-01-11T18:17:13.403Z,24.03
2018-01-11T18:19:40.998Z,24.70
2018-01-11T18:22:08.595Z,23.93
2018-01-11T18:24:36.234Z,23.87
2018-01-11T18:27:03.908Z,23.83
2018-01-11T18:29:31.516Z,22.97
2018-01-11T18:31:59.101Z,23.27
2018-01-11T18:34:26.662Z,22.30
2018-01-11T18:36:54.364Z,20.13
2018-01-11T18:39:22.238Z,24.57
2018-01-11T18:41:49.876Z,24.27
2018-01-11T18:44:17.467Z,24.00
2018-01-11T18:46:45.252Z,24.87
2018-01-11T18:49:12.813Z,24.70
2018-01-11T18:51:40.448Z,24.23
2018-01-11T18:54:08.410Z,24.97
2018-01-11T18:56:37.384Z,23.63
2018-01-11T19:01:38.847Z,25.70
2018-01-11T19:04:06.398Z,24.43
2018-01-11T19:06:34.332Z,24.33
2018-01-11T19:09:04.284Z,24.47
2018-01-11T19:11:32.184Z,25.90
2018-01-11T19:13:59.749Z,27.40
2018-01-11T19:16:27.357Z,27.90
2018-01-11T19:18:55.015Z,27.27
2018-01-11T19:21:22.822Z,27.60
2018-01-11T19:23:51.477Z,29.03
2018-01-11T19:26:19.151Z,30.10
2018-01-11T19:28:46.788Z,28.87
2018-01-11T19:31:14.486Z,28.63
2018-01-11T19:33:42.189Z,29.90
2018-01-11T19:36:09.884Z,28.07
2018-01-11T19:38:37.464Z,29.70
2018-01-11T19:41:05.460Z,28.93
2018-01-11T19:43:33.264Z,28.10
2018-01-11T19:46:00.892Z,30.53
2018-01-11T19:48:28.739Z,29.80
2018-01-11T19:50:56.625Z,30.80
2018-01-11T19:53:24.598Z,28.80
2018-01-11T19:55:52.323Z,27.13
2018-01-11T19:58:19.902Z,27.43
2018-01-11T20:00:47.472Z,30.03
2018-01-11T20:03:15.063Z,29.30
2018-01-11T20:05:42.670Z,28.93
2018-01-11T20:08:10.351Z,29.73
2018-01-11T20:10:38.229Z,28.10
2018-01-11T20:13:06.194Z,28.47
2018-01-11T20:15:34.079Z,29.17
2018-01-11T20:18:01.939Z,26.97
2018-01-11T20:20:29.536Z,29.50
2018-01-11T20:22:57.469Z,29.80
2018-01-11T20:25:25.112Z,29.27
2018-01-11T20:27:52.939Z,27.13
2018-01-11T20:30:20.661Z,28.10
2018-01-11T20:32:48.322Z,27.83
2018-01-11T20:35:15.951Z,28.47
2018-01-11T20:37:43.594Z,27.47
2018-01-11T20:40:11.188Z,26.13
2018-01-11T20:42:38.843Z,28.13
2018-01-11T20:45:06.398Z,28.30
2018-01-11T20:47:34.036Z,28.00
2018-01-11T20:50:01.871Z,28.67
2018-01-11T20:52:29.826Z,29.20
2018-01-11T20:54:57.433Z,31.13
2018-01-11T20:57:25.045Z,33.70
2018-01-11T20:59:52.669Z,38.23
2018-01-11T21:02:20.311Z,35.83
2018-01-11T21:04:47.938Z,29.80
2018-01-11T21:07:15.570Z,30.10
2018-01-11T21:09:43.234Z,30.10
2018-01-11T21:12:10.877Z,30.57
2018-01-11T21:14:38.559Z,30.50
2018-01-11T21:17:06.447Z,34.90
2018-01-11T21:19:34.423Z,32.00
2018-01-11T21:22:02.065Z,31.63
2018-01-11T21:24:29.746Z,37.97
2018-01-11T21:26:57.428Z,33.80
2018-01-11T21:29:25.041Z,35.90
2018-01-11T21:31:52.641Z,30.87
2018-01-11T21:34:20.290Z,27.30
2018-01-11T21:36:47.888Z,29.83
2018-01-11T21:39:15.454Z,27.23
2018-01-11T21:41:43.201Z,26.20
2018-01-11T21:44:10.858Z,27.67
2018-01-11T21:46:38.432Z,29.00
2018-01-11T21:49:06.958Z,26.67
2018-01-11T21:51:34.790Z,26.83
2018-01-11T21:54:02.381Z,27.43
2018-01-11T21:56:30.367Z,28.50
2018-01-11T21:58:58.167Z,27.50
2018-01-11T22:01:26.621Z,27.60
2018-01-11T22:03:54.310Z,29.73
2018-01-11T22:06:21.912Z,26.90
2018-01-11T22:08:49.544Z,29.90
2018-01-11T22:11:17.104Z,27.23
2018-01-11T22:13:44.934Z,27.03
2018-01-11T22:16:12.624Z,27.33
2018-01-11T22:18:40.229Z,27.03
2018-01-11T22:21:08.097Z,30.63
2018-01-11T22:23:36.098Z,29.90
2018-01-11T22:26:03.670Z,29.50
2018-01-11T22:28:31.247Z,28.53
2018-01-11T22:30:58.932Z,30.90
2018-01-11T22:33:26.532Z,29.17
2018-01-11T22:35:54.129Z,27.10
2018-01-11T22:38:21.741Z,27.70
2018-01-11T22:40:49.365Z,30.07
2018-01-11T22:43:17.008Z,32.33
2018-01-11T22:45:44.603Z,30.37
2018-01-11T22:48:12.615Z,30.97
2018-01-11T22:50:40.268Z,30.60
2018-01-11T22:53:08.213Z,34.13
2018-01-11T22:55:36.024Z,29.77
2018-01-11T22:58:03.581Z,33.00
2018-01-11T23:00:31.251Z,30.30
2018-01-11T23:02:59.209Z,32.00
2018-01-11T23:05:27.088Z,30.70
2018-01-11T23:07:55.045Z,31.67
2018-01-11T23:10:22.634Z,32.10
2018-01-11T23:12:50.287Z,30.43
2018-01-11T23:15:17.849Z,30.90
2018-01-11T23:17:45.539Z,31.47
2018-01-11T23:20:13.164Z,32.40
2018-01-11T23:22:40.770Z,33.57
2018-01-11T23:25:08.461Z,32.90
2018-01-11T23:27:36.067Z,33.90
2018-01-11T23:30:04.047Z,31.40
2018-01-11T23:32:31.615Z,33.67
2018-01-11T23:34:59.214Z,32.33
2018-01-11T23:37:27.198Z,33.53
2018-01-11T23:39:54.846Z,30.10
2018-01-11T23:42:22.518Z,34.10
2018-01-11T23:44:50.498Z,33.00
2018-01-11T23:47:18.186Z,32.70
2018-01-11T23:49:45.752Z,32.13
2018-01-11T23:52:13.380Z,34.30
2018-01-11T23:54:40.973Z,32.77
2018-01-11T23:57:09.011Z,31.90
2018-01-11T23:59:36.613Z,34.27
